sensor_id;sensor_type;location;lat;lon;timestamp;P1;P2;P0
73623;PMS5003;61921;53.226;-1.296;2023-06-24T00:01:43;5;5;
73623;PMS5003;61921;53.226;-1.296;2023-06-24T00:04:09;5;5;
73623;PMS5003;61921;53.226;-1.296;2023-06-24T00:06:34;3;3;
73623;PMS5003;61921;53.226;-1.296;2023-06-24T00:08:59;4;4;
73623;PMS5003;61921;53.226;-1.296;2023-06-24T00:11:24;3;3;
73623;PMS5003;61921;53.226;-1.296;2023-06-24T00:13:49;6;4;
73623;PMS5003;61921;53.226;-1.296;2023-06-24T00:16:14;2;2;
73623;PMS5003;61921;53.226;-1.296;2023-06-24T00:18:40;4;4;
73623;PMS5003;61921;53.226;-1.296;2023-06-24T00:21:04;4;3;
73623;PMS5003;61921;53.226;-1.296;2023-06-24T00:23:30;4;4;
73623;PMS5003;61921;53.226;-1.296;2023-06-24T00:25:55;3;3;
73623;PMS5003;61921;53.226;-1.296;2023-06-24T00:28:20;4;4;
73623;PMS5003;61921;53.226;-1.296;2023-06-24T00:30:45;2;2;
73623;PMS5003;61921;53.226;-1.296;2023-06-24T00:33:10;4;4;
73623;PMS5003;61921;53.226;-1.296;2023-06-24T00:35:35;2;2;
73623;PMS5003;61921;53.226;-1.296;2023-06-24T00:38:00;3;3;
73623;PMS5003;61921;53.226;-1.296;2023-06-24T00:40:26;3;3;
73623;PMS5003;61921;53.226;-1.296;2023-06-24T00:42:51;3;3;
73623;PMS5003;61921;53.226;-1.296;2023-06-24T00:45:16;4;4;
73623;PMS5003;61921;53.226;-1.296;2023-06-24T00:47:41;3;3;
73623;PMS5003;61921;53.226;-1.296;2023-06-24T00:50:06;4;4;
73623;PMS5003;61921;53.226;-1.296;2023-06-24T00:52:31;4;3;
73623;PMS5003;61921;53.226;-1.296;2023-06-24T00:54:56;1;1;
73623;PMS5003;61921;53.226;-1.296;2023-06-24T00:57:22;1;1;
73623;PMS5003;61921;53.226;-1.296;2023-06-24T00:59:47;4;4;
73623;PMS5003;61921;53.226;-1.296;2023-06-24T01:02:12;1;1;
73623;PMS5003;61921;53.226;-1.296;2023-06-24T01:04:37;5;3;
73623;PMS5003;61921;53.226;-1.296;2023-06-24T01:07:02;6;4;
73623;PMS5003;61921;53.226;-1.296;2023-06-24T01:09:27;3;3;
73623;PMS5003;61921;53.226;-1.296;2023-06-24T01:11:52;3;3;
73623;PMS5003;61921;53.226;-1.296;2023-06-24T01:14:18;6;4;
73623;PMS5003;61921;53.226;-1.296;2023-06-24T01:16:44;4;3;
73623;PMS5003;61921;53.226;-1.296;2023-06-24T01:19:12;2;2;
73623;PMS5003;61921;53.226;-1.296;2023-06-24T01:21:35;4;4;
73623;PMS5003;61921;53.226;-1.296;2023-06-24T01:24:03;6;3;
73623;PMS5003;61921;53.226;-1.296;2023-06-24T01:26:32;3;3;
73623;PMS5003;61921;53.226;-1.296;2023-06-24T01:28:55;4;4;
73623;PMS5003;61921;53.226;-1.296;2023-06-24T01:33:41;2;2;
73623;PMS5003;61921;53.226;-1.296;2023-06-24T01:36:04;2;2;
73623;PMS5003;61921;53.226;-1.296;2023-06-24T01:38:30;3;3;
73623;PMS5003;61921;53.226;-1.296;2023-06-24T01:40:55;4;4;
73623;PMS5003;61921;53.226;-1.296;2023-06-24T01:43:20;4;4;
73623;PMS5003;61921;53.226;-1.296;2023-06-24T01:45:45;4;4;
73623;PMS5003;61921;53.226;-1.296;2023-06-24T01:48:11;4;4;
73623;PMS5003;61921;53.226;-1.296;2023-06-24T01:50:35;3;3;
73623;PMS5003;61921;53.226;-1.296;2023-06-24T01:53:01;4;4;
73623;PMS5003;61921;53.226;-1.296;2023-06-24T01:55:27;4;4;
73623;PMS5003;61921;53.226;-1.296;2023-06-24T01:57:51;5;4;
73623;PMS5003;61921;53.226;-1.296;2023-06-24T02:00:16;2;2;
73623;PMS5003;61921;53.226;-1.296;2023-06-24T02:02:41;4;4;
73623;PMS5003;61921;53.226;-1.296;2023-06-24T02:05:06;5;5;
73623;PMS5003;61921;53.226;-1.296;2023-06-24T02:07:31;3;3;
73623;PMS5003;61921;53.226;-1.296;2023-06-24T02:09:56;3;3;
73623;PMS5003;61921;53.226;-1.296;2023-06-24T02:12:21;3;3;
73623;PMS5003;61921;53.226;-1.296;2023-06-24T02:14:47;4;3;
73623;PMS5003;61921;53.226;-1.296;2023-06-24T02:17:12;4;4;
73623;PMS5003;61921;53.226;-1.296;2023-06-24T02:19:37;5;4;
73623;PMS5003;61921;53.226;-1.296;2023-06-24T02:22:02;3;3;
73623;PMS5003;61921;53.226;-1.296;2023-06-24T02:24:27;5;5;
73623;PMS5003;61921;53.226;-1.296;2023-06-24T02:26:52;4;4;
73623;PMS5003;61921;53.226;-1.296;2023-06-24T02:29:17;3;3;
73623;PMS5003;61921;53.226;-1.296;2023-06-24T02:31:43;4;4;
73623;PMS5003;61921;53.226;-1.296;2023-06-24T02:34:08;4;4;
73623;PMS5003;61921;53.226;-1.296;2023-06-24T02:36:33;4;4;
73623;PMS5003;61921;53.226;-1.296;2023-06-24T02:38:58;5;5;
73623;PMS5003;61921;53.226;-1.296;2023-06-24T02:41:23;6;5;
73623;PMS5003;61921;53.226;-1.296;2023-06-24T02:43:48;3;3;
73623;PMS5003;61921;53.226;-1.296;2023-06-24T02:46:14;3;3;
73623;PMS5003;61921;53.226;-1.296;2023-06-24T02:48:39;6;5;
73623;PMS5003;61921;53.226;-1.296;2023-06-24T02:51:04;5;5;
73623;PMS5003;61921;53.226;-1.296;2023-06-24T02:53:29;3;3;
73623;PMS5003;61921;53.226;-1.296;2023-06-24T02:55:55;6;4;
73623;PMS5003;61921;53.226;-1.296;2023-06-24T02:58:19;4;4;
73623;PMS5003;61921;53.226;-1.296;2023-06-24T03:00:44;2;2;
73623;PMS5003;61921;53.226;-1.296;2023-06-24T03:03:10;6;6;
73623;PMS5003;61921;53.226;-1.296;2023-06-24T03:05:35;3;3;
73623;PMS5003;61921;53.226;-1.296;2023-06-24T03:08:00;5;5;
73623;PMS5003;61921;53.226;-1.296;2023-06-24T03:10:25;5;5;
73623;PMS5003;61921;53.226;-1.296;2023-06-24T03:12:51;5;4;
73623;PMS5003;61921;53.226;-1.296;2023-06-24T03:15:16;6;6;
73623;PMS5003;61921;53.226;-1.296;2023-06-24T03:17:41;4;3;
73623;PMS5003;61921;53.226;-1.296;2023-06-24T03:20:07;7;6;
73623;PMS5003;61921;53.226;-1.296;2023-06-24T03:22:32;5;5;
73623;PMS5003;61921;53.226;-1.296;2023-06-24T03:24:57;4;4;
73623;PMS5003;61921;53.226;-1.296;2023-06-24T03:27:22;8;6;
73623;PMS5003;61921;53.226;-1.296;2023-06-24T03:29:47;7;7;
73623;PMS5003;61921;53.226;-1.296;2023-06-24T03:32:12;9;6;
73623;PMS5003;61921;53.226;-1.296;2023-06-24T03:34:37;6;6;
73623;PMS5003;61921;53.226;-1.296;2023-06-24T03:37:03;6;5;
73623;PMS5003;61921;53.226;-1.296;2023-06-24T03:39:28;7;6;
73623;PMS5003;61921;53.226;-1.296;2023-06-24T03:41:53;4;4;
73623;PMS5003;61921;53.226;-1.296;2023-06-24T03:44:18;7;5;
73623;PMS5003;61921;53.226;-1.296;2023-06-24T03:46:43;6;6;
73623;PMS5003;61921;53.226;-1.296;2023-06-24T03:49:08;7;6;
73623;PMS5003;61921;53.226;-1.296;2023-06-24T03:51:33;8;7;
73623;PMS5003;61921;53.226;-1.296;2023-06-24T03:53:59;7;7;
73623;PMS5003;61921;53.226;-1.296;2023-06-24T03:56:24;8;8;
73623;PMS5003;61921;53.226;-1.296;2023-06-24T03:58:49;6;6;
73623;PMS5003;61921;53.226;-1.296;2023-06-24T04:01:14;6;6;
73623;PMS5003;61921;53.226;-1.296;2023-06-24T04:03:39;5;5;
73623;PMS5003;61921;53.226;-1.296;2023-06-24T04:06:04;8;7;
73623;PMS5003;61921;53.226;-1.296;2023-06-24T04:08:30;8;7;
73623;PMS5003;61921;53.226;-1.296;2023-06-24T04:10:55;9;7;
73623;PMS5003;61921;53.226;-1.296;2023-06-24T04:13:20;6;6;
73623;PMS5003;61921;53.226;-1.296;2023-06-24T04:15:45;8;7;
73623;PMS5003;61921;53.226;-1.296;2023-06-24T04:18:10;9;9;
73623;PMS5003;61921;53.226;-1.296;2023-06-24T04:20:36;5;5;
73623;PMS5003;61921;53.226;-1.296;2023-06-24T04:23:01;7;7;
73623;PMS5003;61921;53.226;-1.296;2023-06-24T04:25:26;5;4;
73623;PMS5003;61921;53.226;-1.296;2023-06-24T04:27:51;9;7;
73623;PMS5003;61921;53.226;-1.296;2023-06-24T04:30:16;9;6;
73623;PMS5003;61921;53.226;-1.296;2023-06-24T04:32:42;6;5;
73623;PMS5003;61921;53.226;-1.296;2023-06-24T04:35:07;8;6;
73623;PMS5003;61921;53.226;-1.296;2023-06-24T04:37:32;7;6;
73623;PMS5003;61921;53.226;-1.296;2023-06-24T04:39:57;9;7;
73623;PMS5003;61921;53.226;-1.296;2023-06-24T04:42:22;5;5;
73623;PMS5003;61921;53.226;-1.296;2023-06-24T04:44:47;7;7;
73623;PMS5003;61921;53.226;-1.296;2023-06-24T04:47:12;8;6;
73623;PMS5003;61921;53.226;-1.296;2023-06-24T04:49:38;7;7;
73623;PMS5003;61921;53.226;-1.296;2023-06-24T04:52:04;8;7;
73623;PMS5003;61921;53.226;-1.296;2023-06-24T04:54:28;7;6;
73623;PMS5003;61921;53.226;-1.296;2023-06-24T04:56:54;9;9;
73623;PMS5003;61921;53.226;-1.296;2023-06-24T04:59:19;9;8;
73623;PMS5003;61921;53.226;-1.296;2023-06-24T05:01:44;10;8;
73623;PMS5003;61921;53.226;-1.296;2023-06-24T05:04:09;9;9;
73623;PMS5003;61921;53.226;-1.296;2023-06-24T05:06:35;10;8;
73623;PMS5003;61921;53.226;-1.296;2023-06-24T05:08:59;10;9;
73623;PMS5003;61921;53.226;-1.296;2023-06-24T05:11:25;9;7;
73623;PMS5003;61921;53.226;-1.296;2023-06-24T05:13:50;9;9;
73623;PMS5003;61921;53.226;-1.296;2023-06-24T05:16:15;9;7;
73623;PMS5003;61921;53.226;-1.296;2023-06-24T05:18:40;9;9;
73623;PMS5003;61921;53.226;-1.296;2023-06-24T05:21:05;7;7;
73623;PMS5003;61921;53.226;-1.296;2023-06-24T05:23:30;6;6;
73623;PMS5003;61921;53.226;-1.296;2023-06-24T05:25:56;11;10;
73623;PMS5003;61921;53.226;-1.296;2023-06-24T05:28:21;9;9;
73623;PMS5003;61921;53.226;-1.296;2023-06-24T05:30:46;9;8;
73623;PMS5003;61921;53.226;-1.296;2023-06-24T05:33:11;10;7;
73623;PMS5003;61921;53.226;-1.296;2023-06-24T05:35:36;9;8;
73623;PMS5003;61921;53.226;-1.296;2023-06-24T05:38:01;12;9;
73623;PMS5003;61921;53.226;-1.296;2023-06-24T05:40:26;7;7;
73623;PMS5003;61921;53.226;-1.296;2023-06-24T05:42:51;9;7;
73623;PMS5003;61921;53.226;-1.296;2023-06-24T05:45:17;10;8;
73623;PMS5003;61921;53.226;-1.296;2023-06-24T05:47:43;9;9;
73623;PMS5003;61921;53.226;-1.296;2023-06-24T05:50:08;10;9;
73623;PMS5003;61921;53.226;-1.296;2023-06-24T05:52:33;11;10;
73623;PMS5003;61921;53.226;-1.296;2023-06-24T05:54:58;13;13;
73623;PMS5003;61921;53.226;-1.296;2023-06-24T05:57:23;9;9;
73623;PMS5003;61921;53.226;-1.296;2023-06-24T05:59:48;10;7;
73623;PMS5003;61921;53.226;-1.296;2023-06-24T06:02:14;8;8;
73623;PMS5003;61921;53.226;-1.296;2023-06-24T06:04:39;11;9;
73623;PMS5003;61921;53.226;-1.296;2023-06-24T06:07:04;10;10;
73623;PMS5003;61921;53.226;-1.296;2023-06-24T06:09:29;9;7;
73623;PMS5003;61921;53.226;-1.296;2023-06-24T06:11:54;9;9;
73623;PMS5003;61921;53.226;-1.296;2023-06-24T06:14:20;13;12;
73623;PMS5003;61921;53.226;-1.296;2023-06-24T06:16:45;10;10;
73623;PMS5003;61921;53.226;-1.296;2023-06-24T06:19:10;10;9;
73623;PMS5003;61921;53.226;-1.296;2023-06-24T06:21:36;10;8;
73623;PMS5003;61921;53.226;-1.296;2023-06-24T06:24:00;7;7;
73623;PMS5003;61921;53.226;-1.296;2023-06-24T06:26:26;10;8;
73623;PMS5003;61921;53.226;-1.296;2023-06-24T06:28:51;9;8;
73623;PMS5003;61921;53.226;-1.296;2023-06-24T06:31:16;9;8;
73623;PMS5003;61921;53.226;-1.296;2023-06-24T06:33:41;11;10;
73623;PMS5003;61921;53.226;-1.296;2023-06-24T06:36:07;8;8;
73623;PMS5003;61921;53.226;-1.296;2023-06-24T06:38:33;9;9;
73623;PMS5003;61921;53.226;-1.296;2023-06-24T06:40:57;7;7;
73623;PMS5003;61921;53.226;-1.296;2023-06-24T06:43:23;6;6;
73623;PMS5003;61921;53.226;-1.296;2023-06-24T06:45:48;9;8;
73623;PMS5003;61921;53.226;-1.296;2023-06-24T06:48:13;8;8;
73623;PMS5003;61921;53.226;-1.296;2023-06-24T06:50:38;7;7;
73623;PMS5003;61921;53.226;-1.296;2023-06-24T06:53:03;8;7;
73623;PMS5003;61921;53.226;-1.296;2023-06-24T06:55:28;6;6;
73623;PMS5003;61921;53.226;-1.296;2023-06-24T06:57:53;7;7;
73623;PMS5003;61921;53.226;-1.296;2023-06-24T07:00:18;8;7;
73623;PMS5003;61921;53.226;-1.296;2023-06-24T07:02:43;6;6;
73623;PMS5003;61921;53.226;-1.296;2023-06-24T07:05:08;8;7;
73623;PMS5003;61921;53.226;-1.296;2023-06-24T07:07:33;8;7;
73623;PMS5003;61921;53.226;-1.296;2023-06-24T07:09:58;9;8;
73623;PMS5003;61921;53.226;-1.296;2023-06-24T07:12:24;9;8;
73623;PMS5003;61921;53.226;-1.296;2023-06-24T07:14:49;7;6;
73623;PMS5003;61921;53.226;-1.296;2023-06-24T07:17:13;6;6;
73623;PMS5003;61921;53.226;-1.296;2023-06-24T07:19:38;7;6;
73623;PMS5003;61921;53.226;-1.296;2023-06-24T07:22:04;7;6;
73623;PMS5003;61921;53.226;-1.296;2023-06-24T07:24:29;8;8;
73623;PMS5003;61921;53.226;-1.296;2023-06-24T07:26:54;10;8;
73623;PMS5003;61921;53.226;-1.296;2023-06-24T07:29:19;8;8;
73623;PMS5003;61921;53.226;-1.296;2023-06-24T07:31:44;11;8;
73623;PMS5003;61921;53.226;-1.296;2023-06-24T07:34:09;7;7;
73623;PMS5003;61921;53.226;-1.296;2023-06-24T07:36:34;6;6;
73623;PMS5003;61921;53.226;-1.296;2023-06-24T07:38:59;8;8;
73623;PMS5003;61921;53.226;-1.296;2023-06-24T07:41:24;13;10;
73623;PMS5003;61921;53.226;-1.296;2023-06-24T07:43:49;6;6;
73623;PMS5003;61921;53.226;-1.296;2023-06-24T07:46:15;7;7;
73623;PMS5003;61921;53.226;-1.296;2023-06-24T07:48:41;9;9;
73623;PMS5003;61921;53.226;-1.296;2023-06-24T07:51:06;7;7;
73623;PMS5003;61921;53.226;-1.296;2023-06-24T07:53:32;14;8;
73623;PMS5003;61921;53.226;-1.296;2023-06-24T07:55:58;8;8;
73623;PMS5003;61921;53.226;-1.296;2023-06-24T07:58:24;8;8;
73623;PMS5003;61921;53.226;-1.296;2023-06-24T08:00:50;9;9;
73623;PMS5003;61921;53.226;-1.296;2023-06-24T08:03:15;8;7;
73623;PMS5003;61921;53.226;-1.296;2023-06-24T08:05:42;7;7;
73623;PMS5003;61921;53.226;-1.296;2023-06-24T08:08:07;9;8;
73623;PMS5003;61921;53.226;-1.296;2023-06-24T08:10:33;8;8;
73623;PMS5003;61921;53.226;-1.296;2023-06-24T08:12:59;9;9;
73623;PMS5003;61921;53.226;-1.296;2023-06-24T08:15:25;6;6;
73623;PMS5003;61921;53.226;-1.296;2023-06-24T08:17:51;8;7;
73623;PMS5003;61921;53.226;-1.296;2023-06-24T08:20:15;8;8;
73623;PMS5003;61921;53.226;-1.296;2023-06-24T08:22:42;7;7;
73623;PMS5003;61921;53.226;-1.296;2023-06-24T08:25:07;8;6;
73623;PMS5003;61921;53.226;-1.296;2023-06-24T08:27:33;7;7;
73623;PMS5003;61921;53.226;-1.296;2023-06-24T08:29:59;7;7;
73623;PMS5003;61921;53.226;-1.296;2023-06-24T08:32:25;8;8;
73623;PMS5003;61921;53.226;-1.296;2023-06-24T08:34:52;7;6;
73623;PMS5003;61921;53.226;-1.296;2023-06-24T08:37:16;9;9;
73623;PMS5003;61921;53.226;-1.296;2023-06-24T08:39:42;7;7;
73623;PMS5003;61921;53.226;-1.296;2023-06-24T08:42:08;16;10;
73623;PMS5003;61921;53.226;-1.296;2023-06-24T08:44:33;7;7;
73623;PMS5003;61921;53.226;-1.296;2023-06-24T08:46:59;6;6;
73623;PMS5003;61921;53.226;-1.296;2023-06-24T08:49:27;7;7;
73623;PMS5003;61921;53.226;-1.296;2023-06-24T08:51:53;6;5;
73623;PMS5003;61921;53.226;-1.296;2023-06-24T08:54:17;7;7;
73623;PMS5003;61921;53.226;-1.296;2023-06-24T08:56:42;5;5;
73623;PMS5003;61921;53.226;-1.296;2023-06-24T08:59:08;6;6;
73623;PMS5003;61921;53.226;-1.296;2023-06-24T09:01:31;5;5;
73623;PMS5003;61921;53.226;-1.296;2023-06-24T09:03:57;7;6;
73623;PMS5003;61921;53.226;-1.296;2023-06-24T09:06:23;5;5;
73623;PMS5003;61921;53.226;-1.296;2023-06-24T09:08:53;5;5;
73623;PMS5003;61921;53.226;-1.296;2023-06-24T09:11:15;5;4;
73623;PMS5003;61921;53.226;-1.296;2023-06-24T09:13:41;6;6;
73623;PMS5003;61921;53.226;-1.296;2023-06-24T09:16:11;8;6;
73623;PMS5003;61921;53.226;-1.296;2023-06-24T09:18:32;9;7;
73623;PMS5003;61921;53.226;-1.296;2023-06-24T09:20:58;6;6;
73623;PMS5003;61921;53.226;-1.296;2023-06-24T09:23:25;8;7;
73623;PMS5003;61921;53.226;-1.296;2023-06-24T09:28:16;6;6;
73623;PMS5003;61921;53.226;-1.296;2023-06-24T09:30:42;4;4;
73623;PMS5003;61921;53.226;-1.296;2023-06-24T09:33:10;9;7;
73623;PMS5003;61921;53.226;-1.296;2023-06-24T09:35:34;6;5;
73623;PMS5003;61921;53.226;-1.296;2023-06-24T09:37:59;7;6;
73623;PMS5003;61921;53.226;-1.296;2023-06-24T09:40:25;10;10;
73623;PMS5003;61921;53.226;-1.296;2023-06-24T09:42:51;6;6;
73623;PMS5003;61921;53.226;-1.296;2023-06-24T09:45:19;6;5;
73623;PMS5003;61921;53.226;-1.296;2023-06-24T09:47:42;9;7;
73623;PMS5003;61921;53.226;-1.296;2023-06-24T09:50:08;7;7;
73623;PMS5003;61921;53.226;-1.296;2023-06-24T09:52:34;7;7;
73623;PMS5003;61921;53.226;-1.296;2023-06-24T09:54:59;7;7;
73623;PMS5003;61921;53.226;-1.296;2023-06-24T09:57:26;7;6;
73623;PMS5003;61921;53.226;-1.296;2023-06-24T09:59:51;6;6;
73623;PMS5003;61921;53.226;-1.296;2023-06-24T10:02:17;7;6;
73623;PMS5003;61921;53.226;-1.296;2023-06-24T10:04:43;8;8;
73623;PMS5003;61921;53.226;-1.296;2023-06-24T10:07:09;5;5;
73623;PMS5003;61921;53.226;-1.296;2023-06-24T10:09:34;7;4;
73623;PMS5003;61921;53.226;-1.296;2023-06-24T10:12:00;6;4;
73623;PMS5003;61921;53.226;-1.296;2023-06-24T10:14:26;5;4;
73623;PMS5003;61921;53.226;-1.296;2023-06-24T10:16:52;5;4;
73623;PMS5003;61921;53.226;-1.296;2023-06-24T10:19:18;5;5;
73623;PMS5003;61921;53.226;-1.296;2023-06-24T10:21:44;5;4;
73623;PMS5003;61921;53.226;-1.296;2023-06-24T10:24:10;4;4;
73623;PMS5003;61921;53.226;-1.296;2023-06-24T10:26:35;4;4;
73623;PMS5003;61921;53.226;-1.296;2023-06-24T10:29:09;5;5;
73623;PMS5003;61921;53.226;-1.296;2023-06-24T10:33:52;4;4;
73623;PMS5003;61921;53.226;-1.296;2023-06-24T10:38:47;5;5;
73623;PMS5003;61921;53.226;-1.296;2023-06-24T10:41:15;4;4;
73623;PMS5003;61921;53.226;-1.296;2023-06-24T10:43:38;4;4;
73623;PMS5003;61921;53.226;-1.296;2023-06-24T10:46:06;6;6;
73623;PMS5003;61921;53.226;-1.296;2023-06-24T10:48:27;5;5;
73623;PMS5003;61921;53.226;-1.296;2023-06-24T10:50:54;3;3;
73623;PMS5003;61921;53.226;-1.296;2023-06-24T10:53:19;5;5;
73623;PMS5003;61921;53.226;-1.296;2023-06-24T10:55:45;5;5;
73623;PMS5003;61921;53.226;-1.296;2023-06-24T10:58:11;4;4;
73623;PMS5003;61921;53.226;-1.296;2023-06-24T11:00:36;7;4;
73623;PMS5003;61921;53.226;-1.296;2023-06-24T11:05:27;5;5;
73623;PMS5003;61921;53.226;-1.296;2023-06-24T11:07:53;4;3;
73623;PMS5003;61921;53.226;-1.296;2023-06-24T11:10:18;3;3;
73623;PMS5003;61921;53.226;-1.296;2023-06-24T11:12:44;4;4;
73623;PMS5003;61921;53.226;-1.296;2023-06-24T11:15:11;5;5;
73623;PMS5003;61921;53.226;-1.296;2023-06-24T11:17:36;4;4;
73623;PMS5003;61921;53.226;-1.296;2023-06-24T11:20:05;7;5;
73623;PMS5003;61921;53.226;-1.296;2023-06-24T11:22:28;10;7;
73623;PMS5003;61921;53.226;-1.296;2023-06-24T11:24:54;4;4;
73623;PMS5003;61921;53.226;-1.296;2023-06-24T11:27:24;4;4;
73623;PMS5003;61921;53.226;-1.296;2023-06-24T11:29:45;4;4;
73623;PMS5003;61921;53.226;-1.296;2023-06-24T11:32:11;5;5;
73623;PMS5003;61921;53.226;-1.296;2023-06-24T11:34:37;2;2;
73623;PMS5003;61921;53.226;-1.296;2023-06-24T11:37:09;6;4;
73623;PMS5003;61921;53.226;-1.296;2023-06-24T11:39:28;5;5;
73623;PMS5003;61921;53.226;-1.296;2023-06-24T11:41:54;3;3;
73623;PMS5003;61921;53.226;-1.296;2023-06-24T11:44:20;4;4;
73623;PMS5003;61921;53.226;-1.296;2023-06-24T11:46:46;4;4;
73623;PMS5003;61921;53.226;-1.296;2023-06-24T11:49:11;8;4;
73623;PMS5003;61921;53.226;-1.296;2023-06-24T11:51:37;3;3;
73623;PMS5003;61921;53.226;-1.296;2023-06-24T11:54:03;4;3;
73623;PMS5003;61921;53.226;-1.296;2023-06-24T11:56:34;4;4;
73623;PMS5003;61921;53.226;-1.296;2023-06-24T11:58:54;3;3;
73623;PMS5003;61921;53.226;-1.296;2023-06-24T12:01:21;3;3;
73623;PMS5003;61921;53.226;-1.296;2023-06-24T12:03:46;2;2;
73623;PMS5003;61921;53.226;-1.296;2023-06-24T12:06:12;3;3;
73623;PMS5003;61921;53.226;-1.296;2023-06-24T12:08:42;3;3;
73623;PMS5003;61921;53.226;-1.296;2023-06-24T12:11:03;3;3;
73623;PMS5003;61921;53.226;-1.296;2023-06-24T12:13:29;3;3;
73623;PMS5003;61921;53.226;-1.296;2023-06-24T12:15:55;3;3;
73623;PMS5003;61921;53.226;-1.296;2023-06-24T12:18:21;4;4;
73623;PMS5003;61921;53.226;-1.296;2023-06-24T12:20:46;4;3;
73623;PMS5003;61921;53.226;-1.296;2023-06-24T12:23:12;3;3;
73623;PMS5003;61921;53.226;-1.296;2023-06-24T12:25:38;2;2;
73623;PMS5003;61921;53.226;-1.296;2023-06-24T12:28:03;3;3;
73623;PMS5003;61921;53.226;-1.296;2023-06-24T12:30:29;3;3;
73623;PMS5003;61921;53.226;-1.296;2023-06-24T12:32:55;4;4;
73623;PMS5003;61921;53.226;-1.296;2023-06-24T12:35:22;4;4;
73623;PMS5003;61921;53.226;-1.296;2023-06-24T12:37:46;5;5;
73623;PMS5003;61921;53.226;-1.296;2023-06-24T12:40:12;4;4;
73623;PMS5003;61921;53.226;-1.296;2023-06-24T12:42:38;4;4;
73623;PMS5003;61921;53.226;-1.296;2023-06-24T12:45:04;3;3;
73623;PMS5003;61921;53.226;-1.296;2023-06-24T12:47:29;5;4;
73623;PMS5003;61921;53.226;-1.296;2023-06-24T12:49:55;5;3;
73623;PMS5003;61921;53.226;-1.296;2023-06-24T12:52:21;4;4;
73623;PMS5003;61921;53.226;-1.296;2023-06-24T12:54:46;3;2;
73623;PMS5003;61921;53.226;-1.296;2023-06-24T12:57:12;4;4;
73623;PMS5003;61921;53.226;-1.296;2023-06-24T12:59:38;4;3;
73623;PMS5003;61921;53.226;-1.296;2023-06-24T13:02:04;4;3;
73623;PMS5003;61921;53.226;-1.296;2023-06-24T13:04:29;3;3;
73623;PMS5003;61921;53.226;-1.296;2023-06-24T13:06:56;3;3;
73623;PMS5003;61921;53.226;-1.296;2023-06-24T13:09:21;3;3;
73623;PMS5003;61921;53.226;-1.296;2023-06-24T13:11:46;6;4;
73623;PMS5003;61921;53.226;-1.296;2023-06-24T13:14:12;3;3;
73623;PMS5003;61921;53.226;-1.296;2023-06-24T13:16:38;3;3;
73623;PMS5003;61921;53.226;-1.296;2023-06-24T13:19:04;3;3;
73623;PMS5003;61921;53.226;-1.296;2023-06-24T13:21:29;3;3;
73623;PMS5003;61921;53.226;-1.296;2023-06-24T13:23:55;4;4;
73623;PMS5003;61921;53.226;-1.296;2023-06-24T13:26:21;5;5;
73623;PMS5003;61921;53.226;-1.296;2023-06-24T13:28:46;2;2;
73623;PMS5003;61921;53.226;-1.296;2023-06-24T13:31:12;4;4;
73623;PMS5003;61921;53.226;-1.296;2023-06-24T13:33:38;4;4;
73623;PMS5003;61921;53.226;-1.296;2023-06-24T13:36:04;4;3;
73623;PMS5003;61921;53.226;-1.296;2023-06-24T13:38:29;4;4;
73623;PMS5003;61921;53.226;-1.296;2023-06-24T13:40:55;4;4;
73623;PMS5003;61921;53.226;-1.296;2023-06-24T13:43:21;3;3;
73623;PMS5003;61921;53.226;-1.296;2023-06-24T13:45:46;4;4;
73623;PMS5003;61921;53.226;-1.296;2023-06-24T13:48:12;6;5;
73623;PMS5003;61921;53.226;-1.296;2023-06-24T13:50:38;3;3;
73623;PMS5003;61921;53.226;-1.296;2023-06-24T13:53:04;5;5;
73623;PMS5003;61921;53.226;-1.296;2023-06-24T13:55:30;4;4;
73623;PMS5003;61921;53.226;-1.296;2023-06-24T13:57:55;4;4;
73623;PMS5003;61921;53.226;-1.296;2023-06-24T14:00:21;4;4;
73623;PMS5003;61921;53.226;-1.296;2023-06-24T14:02:47;4;4;
73623;PMS5003;61921;53.226;-1.296;2023-06-24T14:05:13;4;4;
73623;PMS5003;61921;53.226;-1.296;2023-06-24T14:07:38;3;3;
73623;PMS5003;61921;53.226;-1.296;2023-06-24T14:10:04;5;5;
73623;PMS5003;61921;53.226;-1.296;2023-06-24T14:12:30;2;2;
73623;PMS5003;61921;53.226;-1.296;2023-06-24T14:14:56;5;5;
73623;PMS5003;61921;53.226;-1.296;2023-06-24T14:17:21;4;4;
73623;PMS5003;61921;53.226;-1.296;2023-06-24T14:19:47;4;3;
73623;PMS5003;61921;53.226;-1.296;2023-06-24T14:22:14;4;4;
73623;PMS5003;61921;53.226;-1.296;2023-06-24T14:24:39;5;5;
73623;PMS5003;61921;53.226;-1.296;2023-06-24T14:27:05;3;3;
73623;PMS5003;61921;53.226;-1.296;2023-06-24T14:29:30;3;3;
73623;PMS5003;61921;53.226;-1.296;2023-06-24T14:31:55;7;5;
73623;PMS5003;61921;53.226;-1.296;2023-06-24T14:34:21;3;3;
73623;PMS5003;61921;53.226;-1.296;2023-06-24T14:36:47;4;4;
73623;PMS5003;61921;53.226;-1.296;2023-06-24T14:39:14;5;5;
73623;PMS5003;61921;53.226;-1.296;2023-06-24T14:41:38;5;5;
73623;PMS5003;61921;53.226;-1.296;2023-06-24T14:44:04;6;5;
73623;PMS5003;61921;53.226;-1.296;2023-06-24T14:46:30;3;3;
73623;PMS5003;61921;53.226;-1.296;2023-06-24T14:48:55;5;5;
73623;PMS5003;61921;53.226;-1.296;2023-06-24T14:51:21;4;4;
73623;PMS5003;61921;53.226;-1.296;2023-06-24T14:53:47;4;4;
73623;PMS5003;61921;53.226;-1.296;2023-06-24T14:56:13;4;3;
73623;PMS5003;61921;53.226;-1.296;2023-06-24T14:58:38;5;3;
73623;PMS5003;61921;53.226;-1.296;2023-06-24T15:01:04;4;4;
73623;PMS5003;61921;53.226;-1.296;2023-06-24T15:03:30;4;4;
73623;PMS5003;61921;53.226;-1.296;2023-06-24T15:05:55;2;2;
73623;PMS5003;61921;53.226;-1.296;2023-06-24T15:08:21;6;5;
73623;PMS5003;61921;53.226;-1.296;2023-06-24T15:10:47;5;5;
73623;PMS5003;61921;53.226;-1.296;2023-06-24T15:13:12;4;4;
73623;PMS5003;61921;53.226;-1.296;2023-06-24T15:15:38;5;5;
73623;PMS5003;61921;53.226;-1.296;2023-06-24T15:18:04;4;4;
73623;PMS5003;61921;53.226;-1.296;2023-06-24T15:20:30;4;4;
73623;PMS5003;61921;53.226;-1.296;2023-06-24T15:22:55;4;3;
73623;PMS5003;61921;53.226;-1.296;2023-06-24T15:25:21;4;4;
73623;PMS5003;61921;53.226;-1.296;2023-06-24T15:27:47;3;3;
73623;PMS5003;61921;53.226;-1.296;2023-06-24T15:30:13;5;4;
73623;PMS5003;61921;53.226;-1.296;2023-06-24T15:32:38;5;4;
73623;PMS5003;61921;53.226;-1.296;2023-06-24T15:35:04;3;3;
73623;PMS5003;61921;53.226;-1.296;2023-06-24T15:37:30;4;4;
73623;PMS5003;61921;53.226;-1.296;2023-06-24T15:39:55;5;5;
73623;PMS5003;61921;53.226;-1.296;2023-06-24T15:42:21;3;3;
73623;PMS5003;61921;53.226;-1.296;2023-06-24T15:44:47;5;5;
73623;PMS5003;61921;53.226;-1.296;2023-06-24T15:47:13;7;7;
73623;PMS5003;61921;53.226;-1.296;2023-06-24T15:49:38;4;4;
73623;PMS5003;61921;53.226;-1.296;2023-06-24T15:52:04;5;4;
73623;PMS5003;61921;53.226;-1.296;2023-06-24T15:54:30;5;5;
73623;PMS5003;61921;53.226;-1.296;2023-06-24T15:56:55;4;4;
73623;PMS5003;61921;53.226;-1.296;2023-06-24T15:59:21;4;4;
73623;PMS5003;61921;53.226;-1.296;2023-06-24T16:01:47;4;4;
73623;PMS5003;61921;53.226;-1.296;2023-06-24T16:04:12;4;4;
73623;PMS5003;61921;53.226;-1.296;2023-06-24T16:06:38;6;4;
73623;PMS5003;61921;53.226;-1.296;2023-06-24T16:09:04;5;5;
73623;PMS5003;61921;53.226;-1.296;2023-06-24T16:11:30;3;3;
73623;PMS5003;61921;53.226;-1.296;2023-06-24T16:13:55;4;4;
73623;PMS5003;61921;53.226;-1.296;2023-06-24T16:16:21;4;4;
73623;PMS5003;61921;53.226;-1.296;2023-06-24T16:18:47;4;4;
73623;PMS5003;61921;53.226;-1.296;2023-06-24T16:21:12;5;4;
73623;PMS5003;61921;53.226;-1.296;2023-06-24T16:23:38;7;5;
73623;PMS5003;61921;53.226;-1.296;2023-06-24T16:26:04;5;4;
73623;PMS5003;61921;53.226;-1.296;2023-06-24T16:28:30;4;4;
73623;PMS5003;61921;53.226;-1.296;2023-06-24T16:30:55;6;6;
73623;PMS5003;61921;53.226;-1.296;2023-06-24T16:33:21;6;5;